Pittsford, NY (14534)

8:37 PM EST on December 19, 2014 (GMT -0500)
Pittsford | Change Station
CLOSE
Current Station
Personal Weather Station
Location: Pittsford, NY
Elevation: 572 ft
Nearby Weather Stations

Elev 572 ft 43.03 °N, 77.51 °W | Updated 2 minutes ago

Overcast
Overcast
27.8 °F
Feels Like 28 °F
N
1.0
Wind Variable Wind from West
Gusts 1.0 mph

Today
High -- | Low -- °F
--% Chance of Precip.
Yesterday
High -- | Low -- °F
Precip. -- in
7:37 AM 4:37 PM
Waning Crescent, 5% visible
Pressure 30.27 in
Visibility 10.0 miles
Clouds Scattered Clouds 2200 ft
Mostly Cloudy 2700 ft
Overcast 10000 ft
Windchill 28 °F
Dew Point 24 °F
Humidity 86%
Rainfall 0.00 in
Snow Depth Not available.
UV 0 out of 12
Pollen .10 out of 12
Air Quality Not available.
Flu Activity Not available.
METAR KROC 200054Z 27005KT 10SM SCT022 BKN027 OVC100 M02/M06 A3023 RMK AO2 SLP248 T10171056

More Conditions Fewer Conditions

Pressure 30.27 in
Visibility 10.0 miles
Clouds Scattered Clouds 2200 ft
Mostly Cloudy 2700 ft
Overcast 10000 ft
Windchill 28 °F
Dew Point 24 °F
Humidity 86%
Rainfall 0.00 in
Snow Depth Not available.
UV 0 out of 12
Pollen .10 out of 12
Air Quality Not available.
Flu Activity Not available.
METAR KROC 200054Z 27005KT 10SM SCT022 BKN027 OVC100 M02/M06 A3023 RMK AO2 SLP248 T10171056

More Conditions Fewer Conditions

10-Day Weather Forecast

Almanac

Astronomy

Dec. 19, 2014 Rise Set
Actual Time
Civil Twilight
Nautical Twilight
Astronomical Twilight
Moon
Length of Visible Light
Length of Day
Tomorrow will be .
, % of the Moon is Illuminated

Today's Extremes

State Highs State Lows

Community

WunderPhotos

Upload Photos

1,779,099 photos uploaded!

WunderBlogs® & News

Nearby

Air Quality

  Air Quality AQ Index Pollutant
Not available.

Snow Depth

Station Depth Elevation

Earthquake Activity

City Distance Mag. Time & Date
Minimum magnitude displayed is 2.5.

Coastal Water Temperatures

Place Temperature

Nearby Weather Stations